sensor_id;sensor_type;location;lat;lon;timestamp;P1;durP1;ratioP1;P2;durP2;ratioP2
19312;SDS011;9791;50.820;4.406;2023-01-29T00:01:08;23.67;;;14.23;;
19312;SDS011;9791;50.820;4.406;2023-01-29T00:03:34;26.20;;;15.07;;
19312;SDS011;9791;50.820;4.406;2023-01-29T00:06:03;25.93;;;15.10;;
19312;SDS011;9791;50.820;4.406;2023-01-29T00:08:31;27.67;;;14.93;;
19312;SDS011;9791;50.820;4.406;2023-01-29T00:11:01;27.00;;;15.70;;
19312;SDS011;9791;50.820;4.406;2023-01-29T00:13:27;25.53;;;14.47;;
19312;SDS011;9791;50.820;4.406;2023-01-29T00:15:53;28.40;;;16.97;;
19312;SDS011;9791;50.820;4.406;2023-01-29T00:18:20;26.10;;;14.97;;
19312;SDS011;9791;50.820;4.406;2023-01-29T00:20:46;30.30;;;16.93;;
19312;SDS011;9791;50.820;4.406;2023-01-29T00:23:12;27.77;;;16.60;;
19312;SDS011;9791;50.820;4.406;2023-01-29T00:25:39;28.23;;;15.40;;
19312;SDS011;9791;50.820;4.406;2023-01-29T00:28:05;29.17;;;16.40;;
19312;SDS011;9791;50.820;4.406;2023-01-29T00:30:32;28.07;;;17.00;;
19312;SDS011;9791;50.820;4.406;2023-01-29T00:32:58;33.23;;;17.20;;
19312;SDS011;9791;50.820;4.406;2023-01-29T00:35:24;28.73;;;16.03;;
19312;SDS011;9791;50.820;4.406;2023-01-29T00:37:50;28.70;;;16.90;;
19312;SDS011;9791;50.820;4.406;2023-01-29T00:40:16;29.07;;;16.63;;
19312;SDS011;9791;50.820;4.406;2023-01-29T00:42:45;29.67;;;16.07;;
19312;SDS011;9791;50.820;4.406;2023-01-29T00:45:29;30.67;;;16.07;;
19312;SDS011;9791;50.820;4.406;2023-01-29T00:47:55;28.07;;;16.13;;
19312;SDS011;9791;50.820;4.406;2023-01-29T00:50:21;29.27;;;16.43;;
19312;SDS011;9791;50.820;4.406;2023-01-29T00:52:47;26.07;;;15.33;;
19312;SDS011;9791;50.820;4.406;2023-01-29T00:55:15;34.63;;;17.33;;
19312;SDS011;9791;50.820;4.406;2023-01-29T00:57:41;33.13;;;16.43;;
19312;SDS011;9791;50.820;4.406;2023-01-29T01:00:09;30.53;;;17.23;;
19312;SDS011;9791;50.820;4.406;2023-01-29T01:02:35;33.60;;;17.60;;
19312;SDS011;9791;50.820;4.406;2023-01-29T01:05:20;29.50;;;17.00;;
19312;SDS011;9791;50.820;4.406;2023-01-29T01:07:47;32.33;;;17.93;;
19312;SDS011;9791;50.820;4.406;2023-01-29T01:10:17;28.57;;;17.07;;
19312;SDS011;9791;50.820;4.406;2023-01-29T01:12:48;32.13;;;16.87;;
19312;SDS011;9791;50.820;4.406;2023-01-29T01:15:15;31.67;;;17.10;;
19312;SDS011;9791;50.820;4.406;2023-01-29T01:17:41;30.67;;;17.93;;
19312;SDS011;9791;50.820;4.406;2023-01-29T01:20:07;32.70;;;17.37;;
19312;SDS011;9791;50.820;4.406;2023-01-29T01:22:33;29.63;;;16.57;;
19312;SDS011;9791;50.820;4.406;2023-01-29T01:25:00;29.10;;;16.90;;
19312;SDS011;9791;50.820;4.406;2023-01-29T01:27:26;26.33;;;14.97;;
19312;SDS011;9791;50.820;4.406;2023-01-29T01:29:52;35.37;;;17.13;;
19312;SDS011;9791;50.820;4.406;2023-01-29T01:32:18;30.07;;;17.27;;
19312;SDS011;9791;50.820;4.406;2023-01-29T01:34:44;27.47;;;16.07;;
19312;SDS011;9791;50.820;4.406;2023-01-29T01:37:10;30.83;;;16.97;;
19312;SDS011;9791;50.820;4.406;2023-01-29T01:39:36;28.50;;;15.67;;
19312;SDS011;9791;50.820;4.406;2023-01-29T01:42:04;25.47;;;15.30;;
19312;SDS011;9791;50.820;4.406;2023-01-29T01:47:16;29.23;;;16.30;;
19312;SDS011;9791;50.820;4.406;2023-01-29T01:49:43;31.00;;;16.27;;
19312;SDS011;9791;50.820;4.406;2023-01-29T01:52:10;28.03;;;15.57;;
19312;SDS011;9791;50.820;4.406;2023-01-29T01:54:36;28.43;;;15.60;;
19312;SDS011;9791;50.820;4.406;2023-01-29T01:57:06;29.80;;;16.20;;
19312;SDS011;9791;50.820;4.406;2023-01-29T01:59:40;29.33;;;16.20;;
19312;SDS011;9791;50.820;4.406;2023-01-29T02:02:08;28.10;;;15.57;;
19312;SDS011;9791;50.820;4.406;2023-01-29T02:04:52;29.40;;;16.10;;
19312;SDS011;9791;50.820;4.406;2023-01-29T02:07:40;30.93;;;16.53;;
19312;SDS011;9791;50.820;4.406;2023-01-29T02:10:26;31.67;;;16.47;;
19312;SDS011;9791;50.820;4.406;2023-01-29T02:12:54;26.93;;;15.73;;
19312;SDS011;9791;50.820;4.406;2023-01-29T02:15:20;28.87;;;16.23;;
19312;SDS011;9791;50.820;4.406;2023-01-29T02:17:47;29.63;;;16.53;;
19312;SDS011;9791;50.820;4.406;2023-01-29T02:20:26;27.40;;;15.50;;
19312;SDS011;9791;50.820;4.406;2023-01-29T02:25:55;30.33;;;15.73;;
19312;SDS011;9791;50.820;4.406;2023-01-29T02:28:35;28.60;;;15.67;;
19312;SDS011;9791;50.820;4.406;2023-01-29T02:51:50;31.90;;;17.60;;
19312;SDS011;9791;50.820;4.406;2023-01-29T02:54:20;34.47;;;19.23;;
19312;SDS011;9791;50.820;4.406;2023-01-29T02:56:56;30.97;;;16.93;;
19312;SDS011;9791;50.820;4.406;2023-01-29T02:59:24;34.10;;;19.27;;
19312;SDS011;9791;50.820;4.406;2023-01-29T03:01:55;36.43;;;19.87;;
19312;SDS011;9791;50.820;4.406;2023-01-29T03:04:25;40.13;;;20.30;;
19312;SDS011;9791;50.820;4.406;2023-01-29T03:07:08;36.37;;;19.07;;
19312;SDS011;9791;50.820;4.406;2023-01-29T03:09:47;35.13;;;19.43;;
19312;SDS011;9791;50.820;4.406;2023-01-29T03:12:18;32.40;;;19.20;;
19312;SDS011;9791;50.820;4.406;2023-01-29T03:15:02;33.97;;;18.30;;
19312;SDS011;9791;50.820;4.406;2023-01-29T03:17:56;40.67;;;20.87;;
19312;SDS011;9791;50.820;4.406;2023-01-29T03:20:27;32.17;;;17.80;;
19312;SDS011;9791;50.820;4.406;2023-01-29T03:22:57;35.70;;;19.17;;
19312;SDS011;9791;50.820;4.406;2023-01-29T03:25:25;35.37;;;19.57;;
19312;SDS011;9791;50.820;4.406;2023-01-29T03:28:11;36.33;;;19.83;;
19312;SDS011;9791;50.820;4.406;2023-01-29T03:30:59;37.83;;;20.10;;
19312;SDS011;9791;50.820;4.406;2023-01-29T03:33:50;33.07;;;19.10;;
19312;SDS011;9791;50.820;4.406;2023-01-29T03:36:26;37.03;;;19.17;;
19312;SDS011;9791;50.820;4.406;2023-01-29T03:39:02;37.47;;;19.93;;
19312;SDS011;9791;50.820;4.406;2023-01-29T03:41:31;33.60;;;19.07;;
19312;SDS011;9791;50.820;4.406;2023-01-29T03:49:17;35.83;;;19.07;;
19312;SDS011;9791;50.820;4.406;2023-01-29T03:57:15;37.97;;;19.80;;
19312;SDS011;9791;50.820;4.406;2023-01-29T03:59:54;38.73;;;20.13;;
19312;SDS011;9791;50.820;4.406;2023-01-29T04:02:24;37.00;;;19.77;;
19312;SDS011;9791;50.820;4.406;2023-01-29T04:04:52;35.63;;;19.10;;
19312;SDS011;9791;50.820;4.406;2023-01-29T04:07:21;35.40;;;19.53;;
19312;SDS011;9791;50.820;4.406;2023-01-29T04:09:53;34.70;;;19.13;;
19312;SDS011;9791;50.820;4.406;2023-01-29T04:12:23;36.07;;;18.47;;
19312;SDS011;9791;50.820;4.406;2023-01-29T04:14:50;37.90;;;19.87;;
19312;SDS011;9791;50.820;4.406;2023-01-29T04:17:19;37.27;;;20.03;;
19312;SDS011;9791;50.820;4.406;2023-01-29T04:19:46;35.93;;;19.57;;
19312;SDS011;9791;50.820;4.406;2023-01-29T04:22:14;38.83;;;20.73;;
19312;SDS011;9791;50.820;4.406;2023-01-29T04:24:42;38.77;;;20.67;;
19312;SDS011;9791;50.820;4.406;2023-01-29T04:27:22;41.13;;;19.30;;
19312;SDS011;9791;50.820;4.406;2023-01-29T04:30:03;37.90;;;18.77;;
19312;SDS011;9791;50.820;4.406;2023-01-29T04:43:57;37.83;;;20.00;;
19312;SDS011;9791;50.820;4.406;2023-01-29T04:48:59;35.07;;;18.93;;
19312;SDS011;9791;50.820;4.406;2023-01-29T04:54:04;40.40;;;19.43;;
19312;SDS011;9791;50.820;4.406;2023-01-29T04:59:04;38.17;;;19.87;;
19312;SDS011;9791;50.820;4.406;2023-01-29T05:01:31;36.33;;;18.80;;
19312;SDS011;9791;50.820;4.406;2023-01-29T05:03:59;34.87;;;19.07;;
19312;SDS011;9791;50.820;4.406;2023-01-29T05:06:26;37.10;;;19.97;;
19312;SDS011;9791;50.820;4.406;2023-01-29T05:08:52;38.10;;;19.90;;
19312;SDS011;9791;50.820;4.406;2023-01-29T05:11:19;35.53;;;19.40;;
19312;SDS011;9791;50.820;4.406;2023-01-29T05:13:45;39.03;;;20.13;;
19312;SDS011;9791;50.820;4.406;2023-01-29T05:16:17;39.60;;;20.63;;
19312;SDS011;9791;50.820;4.406;2023-01-29T05:18:44;34.77;;;19.90;;
19312;SDS011;9791;50.820;4.406;2023-01-29T05:21:10;38.07;;;20.43;;
19312;SDS011;9791;50.820;4.406;2023-01-29T05:23:36;36.27;;;19.27;;
19312;SDS011;9791;50.820;4.406;2023-01-29T05:26:02;40.17;;;20.10;;
19312;SDS011;9791;50.820;4.406;2023-01-29T05:28:28;38.97;;;20.27;;
19312;SDS011;9791;50.820;4.406;2023-01-29T05:30:55;34.80;;;18.77;;
19312;SDS011;9791;50.820;4.406;2023-01-29T05:35:47;35.10;;;20.67;;
19312;SDS011;9791;50.820;4.406;2023-01-29T05:38:14;36.83;;;19.67;;
19312;SDS011;9791;50.820;4.406;2023-01-29T05:40:40;37.70;;;19.80;;
19312;SDS011;9791;50.820;4.406;2023-01-29T05:43:22;36.83;;;19.23;;
19312;SDS011;9791;50.820;4.406;2023-01-29T05:48:18;32.80;;;18.27;;
19312;SDS011;9791;50.820;4.406;2023-01-29T05:50:44;39.70;;;20.23;;
19312;SDS011;9791;50.820;4.406;2023-01-29T05:53:10;34.77;;;18.87;;
19312;SDS011;9791;50.820;4.406;2023-01-29T05:55:36;37.27;;;20.37;;
19312;SDS011;9791;50.820;4.406;2023-01-29T05:58:02;38.80;;;20.67;;
19312;SDS011;9791;50.820;4.406;2023-01-29T06:00:28;38.60;;;19.57;;
19312;SDS011;9791;50.820;4.406;2023-01-29T06:02:54;36.03;;;18.83;;
19312;SDS011;9791;50.820;4.406;2023-01-29T06:05:20;36.00;;;19.53;;
19312;SDS011;9791;50.820;4.406;2023-01-29T06:07:46;35.90;;;19.97;;
19312;SDS011;9791;50.820;4.406;2023-01-29T06:10:13;36.40;;;19.53;;
19312;SDS011;9791;50.820;4.406;2023-01-29T06:12:40;34.50;;;20.23;;
19312;SDS011;9791;50.820;4.406;2023-01-29T06:15:06;33.17;;;19.23;;
19312;SDS011;9791;50.820;4.406;2023-01-29T06:17:32;38.70;;;20.37;;
19312;SDS011;9791;50.820;4.406;2023-01-29T06:19:58;37.73;;;20.87;;
19312;SDS011;9791;50.820;4.406;2023-01-29T06:22:24;38.37;;;20.37;;
19312;SDS011;9791;50.820;4.406;2023-01-29T06:24:52;35.73;;;20.27;;
19312;SDS011;9791;50.820;4.406;2023-01-29T06:27:18;34.17;;;19.77;;
19312;SDS011;9791;50.820;4.406;2023-01-29T06:29:44;36.53;;;20.00;;
19312;SDS011;9791;50.820;4.406;2023-01-29T06:32:10;33.17;;;20.17;;
19312;SDS011;9791;50.820;4.406;2023-01-29T06:34:36;37.10;;;21.73;;
19312;SDS011;9791;50.820;4.406;2023-01-29T06:37:02;41.23;;;22.07;;
19312;SDS011;9791;50.820;4.406;2023-01-29T06:39:28;36.27;;;20.67;;
19312;SDS011;9791;50.820;4.406;2023-01-29T06:41:54;33.87;;;19.00;;
19312;SDS011;9791;50.820;4.406;2023-01-29T06:44:20;36.47;;;20.03;;
19312;SDS011;9791;50.820;4.406;2023-01-29T06:46:46;37.83;;;20.80;;
19312;SDS011;9791;50.820;4.406;2023-01-29T06:49:12;35.10;;;20.57;;
19312;SDS011;9791;50.820;4.406;2023-01-29T06:51:38;38.80;;;21.50;;
19312;SDS011;9791;50.820;4.406;2023-01-29T06:54:04;34.70;;;20.83;;
19312;SDS011;9791;50.820;4.406;2023-01-29T06:56:32;36.67;;;20.67;;
19312;SDS011;9791;50.820;4.406;2023-01-29T06:58:58;36.87;;;21.50;;
19312;SDS011;9791;50.820;4.406;2023-01-29T07:01:24;36.17;;;19.70;;
19312;SDS011;9791;50.820;4.406;2023-01-29T07:03:50;33.07;;;19.73;;
19312;SDS011;9791;50.820;4.406;2023-01-29T07:06:16;38.63;;;20.73;;
19312;SDS011;9791;50.820;4.406;2023-01-29T07:08:42;33.90;;;20.23;;
19312;SDS011;9791;50.820;4.406;2023-01-29T07:11:09;33.37;;;19.77;;
19312;SDS011;9791;50.820;4.406;2023-01-29T07:13:35;37.07;;;21.53;;
19312;SDS011;9791;50.820;4.406;2023-01-29T07:16:01;37.47;;;21.20;;
19312;SDS011;9791;50.820;4.406;2023-01-29T07:18:27;33.43;;;19.93;;
19312;SDS011;9791;50.820;4.406;2023-01-29T07:20:54;37.80;;;22.40;;
19312;SDS011;9791;50.820;4.406;2023-01-29T07:23:20;36.37;;;19.90;;
19312;SDS011;9791;50.820;4.406;2023-01-29T07:25:46;38.97;;;20.93;;
19312;SDS011;9791;50.820;4.406;2023-01-29T07:28:14;37.47;;;21.07;;
19312;SDS011;9791;50.820;4.406;2023-01-29T07:30:40;34.47;;;20.67;;
19312;SDS011;9791;50.820;4.406;2023-01-29T07:33:07;34.47;;;20.03;;
19312;SDS011;9791;50.820;4.406;2023-01-29T07:35:37;37.40;;;20.40;;
19312;SDS011;9791;50.820;4.406;2023-01-29T07:38:03;34.87;;;19.80;;
19312;SDS011;9791;50.820;4.406;2023-01-29T07:40:29;38.03;;;21.00;;
19312;SDS011;9791;50.820;4.406;2023-01-29T07:43:03;35.10;;;20.37;;
19312;SDS011;9791;50.820;4.406;2023-01-29T07:45:30;35.10;;;20.30;;
19312;SDS011;9791;50.820;4.406;2023-01-29T07:47:56;36.17;;;20.83;;
19312;SDS011;9791;50.820;4.406;2023-01-29T07:50:22;32.23;;;19.73;;
19312;SDS011;9791;50.820;4.406;2023-01-29T07:52:49;34.47;;;19.27;;
19312;SDS011;9791;50.820;4.406;2023-01-29T07:55:15;35.90;;;21.10;;
19312;SDS011;9791;50.820;4.406;2023-01-29T07:57:42;33.50;;;19.40;;
19312;SDS011;9791;50.820;4.406;2023-01-29T08:00:08;37.87;;;20.80;;
19312;SDS011;9791;50.820;4.406;2023-01-29T08:02:35;34.33;;;20.57;;
19312;SDS011;9791;50.820;4.406;2023-01-29T08:05:01;33.73;;;20.33;;
19312;SDS011;9791;50.820;4.406;2023-01-29T08:07:27;40.30;;;21.30;;
19312;SDS011;9791;50.820;4.406;2023-01-29T08:09:53;36.07;;;20.13;;
19312;SDS011;9791;50.820;4.406;2023-01-29T08:12:19;35.03;;;19.27;;
19312;SDS011;9791;50.820;4.406;2023-01-29T08:14:45;36.50;;;20.37;;
19312;SDS011;9791;50.820;4.406;2023-01-29T08:17:12;31.20;;;17.83;;
19312;SDS011;9791;50.820;4.406;2023-01-29T08:19:38;28.40;;;17.70;;
19312;SDS011;9791;50.820;4.406;2023-01-29T08:22:04;34.43;;;18.90;;
19312;SDS011;9791;50.820;4.406;2023-01-29T08:24:31;31.67;;;18.70;;
19312;SDS011;9791;50.820;4.406;2023-01-29T08:26:57;31.73;;;17.83;;
19312;SDS011;9791;50.820;4.406;2023-01-29T08:29:23;32.70;;;17.50;;
19312;SDS011;9791;50.820;4.406;2023-01-29T08:31:49;31.73;;;18.40;;
19312;SDS011;9791;50.820;4.406;2023-01-29T08:34:15;28.90;;;17.53;;
19312;SDS011;9791;50.820;4.406;2023-01-29T08:36:41;30.60;;;17.37;;
19312;SDS011;9791;50.820;4.406;2023-01-29T08:39:07;30.97;;;17.20;;
19312;SDS011;9791;50.820;4.406;2023-01-29T08:41:33;28.70;;;17.17;;
19312;SDS011;9791;50.820;4.406;2023-01-29T08:43:59;26.43;;;16.13;;
19312;SDS011;9791;50.820;4.406;2023-01-29T08:46:28;29.60;;;16.90;;
19312;SDS011;9791;50.820;4.406;2023-01-29T08:48:54;26.60;;;16.00;;
19312;SDS011;9791;50.820;4.406;2023-01-29T08:51:20;34.30;;;18.50;;
19312;SDS011;9791;50.820;4.406;2023-01-29T08:53:46;29.90;;;17.20;;
19312;SDS011;9791;50.820;4.406;2023-01-29T08:56:13;31.13;;;18.20;;
19312;SDS011;9791;50.820;4.406;2023-01-29T08:58:40;31.90;;;18.40;;
19312;SDS011;9791;50.820;4.406;2023-01-29T09:01:07;31.58;;;17.92;;
19312;SDS011;9791;50.820;4.406;2023-01-29T09:03:33;29.90;;;17.37;;
19312;SDS011;9791;50.820;4.406;2023-01-29T09:05:59;26.40;;;17.33;;
19312;SDS011;9791;50.820;4.406;2023-01-29T09:08:25;29.93;;;16.67;;
19312;SDS011;9791;50.820;4.406;2023-01-29T09:10:52;29.10;;;16.37;;
19312;SDS011;9791;50.820;4.406;2023-01-29T09:13:18;30.40;;;16.73;;
19312;SDS011;9791;50.820;4.406;2023-01-29T09:15:44;28.33;;;16.90;;
19312;SDS011;9791;50.820;4.406;2023-01-29T09:18:10;30.50;;;17.88;;
19312;SDS011;9791;50.820;4.406;2023-01-29T09:20:36;30.05;;;17.38;;
19312;SDS011;9791;50.820;4.406;2023-01-29T09:23:04;28.42;;;16.85;;
19312;SDS011;9791;50.820;4.406;2023-01-29T09:25:30;30.55;;;17.95;;
19312;SDS011;9791;50.820;4.406;2023-01-29T09:27:56;28.98;;;15.80;;
19312;SDS011;9791;50.820;4.406;2023-01-29T09:30:22;30.23;;;18.33;;
19312;SDS011;9791;50.820;4.406;2023-01-29T09:32:48;30.30;;;16.13;;
19312;SDS011;9791;50.820;4.406;2023-01-29T09:35:14;29.00;;;16.53;;
19312;SDS011;9791;50.820;4.406;2023-01-29T09:37:40;28.73;;;16.17;;
19312;SDS011;9791;50.820;4.406;2023-01-29T09:40:06;30.02;;;18.10;;
19312;SDS011;9791;50.820;4.406;2023-01-29T09:42:40;30.77;;;18.43;;
19312;SDS011;9791;50.820;4.406;2023-01-29T09:47:35;31.35;;;16.10;;
19312;SDS011;9791;50.820;4.406;2023-01-29T09:50:03;32.53;;;17.05;;
19312;SDS011;9791;50.820;4.406;2023-01-29T09:54:59;30.38;;;17.67;;
19312;SDS011;9791;50.820;4.406;2023-01-29T09:57:39;33.08;;;17.73;;
19312;SDS011;9791;50.820;4.406;2023-01-29T10:00:08;30.90;;;17.63;;
19312;SDS011;9791;50.820;4.406;2023-01-29T10:02:45;30.40;;;17.43;;
19312;SDS011;9791;50.820;4.406;2023-01-29T10:05:24;30.43;;;16.40;;
19312;SDS011;9791;50.820;4.406;2023-01-29T10:16:06;28.10;;;16.10;;
19312;SDS011;9791;50.820;4.406;2023-01-29T10:18:48;31.90;;;18.10;;
19312;SDS011;9791;50.820;4.406;2023-01-29T10:23:52;27.17;;;16.23;;
19312;SDS011;9791;50.820;4.406;2023-01-29T10:26:20;27.30;;;16.40;;
19312;SDS011;9791;50.820;4.406;2023-01-29T10:28:48;30.95;;;15.73;;
19312;SDS011;9791;50.820;4.406;2023-01-29T10:33:46;26.77;;;14.57;;
19312;SDS011;9791;50.820;4.406;2023-01-29T10:36:17;29.58;;;15.98;;
19312;SDS011;9791;50.820;4.406;2023-01-29T10:38:45;23.20;;;14.85;;
19312;SDS011;9791;50.820;4.406;2023-01-29T11:01:49;26.77;;;14.33;;
19312;SDS011;9791;50.820;4.406;2023-01-29T11:04:16;24.83;;;14.23;;
19312;SDS011;9791;50.820;4.406;2023-01-29T11:06:43;23.60;;;14.57;;
19312;SDS011;9791;50.820;4.406;2023-01-29T11:14:18;22.92;;;14.07;;
19312;SDS011;9791;50.820;4.406;2023-01-29T11:16:46;24.77;;;14.25;;
19312;SDS011;9791;50.820;4.406;2023-01-29T11:19:12;25.70;;;13.88;;
19312;SDS011;9791;50.820;4.406;2023-01-29T11:24:24;24.50;;;14.32;;
19312;SDS011;9791;50.820;4.406;2023-01-29T11:26:50;24.65;;;15.52;;
19312;SDS011;9791;50.820;4.406;2023-01-29T11:31:52;24.15;;;14.88;;
19312;SDS011;9791;50.820;4.406;2023-01-29T11:34:19;22.48;;;13.10;;
19312;SDS011;9791;50.820;4.406;2023-01-29T11:36:55;22.25;;;13.05;;
19312;SDS011;9791;50.820;4.406;2023-01-29T11:39:22;23.63;;;13.32;;
19312;SDS011;9791;50.820;4.406;2023-01-29T11:41:58;21.02;;;12.30;;
19312;SDS011;9791;50.820;4.406;2023-01-29T11:44:31;22.92;;;13.07;;
19312;SDS011;9791;50.820;4.406;2023-01-29T11:47:08;25.77;;;13.63;;
19312;SDS011;9791;50.820;4.406;2023-01-29T11:49:35;21.98;;;12.43;;
19312;SDS011;9791;50.820;4.406;2023-01-29T11:52:03;19.70;;;12.25;;
19312;SDS011;9791;50.820;4.406;2023-01-29T11:54:31;18.15;;;11.57;;
19312;SDS011;9791;50.820;4.406;2023-01-29T11:56:58;20.63;;;12.38;;
19312;SDS011;9791;50.820;4.406;2023-01-29T11:59:27;18.73;;;10.18;;
19312;SDS011;9791;50.820;4.406;2023-01-29T12:01:54;19.92;;;11.60;;
19312;SDS011;9791;50.820;4.406;2023-01-29T12:04:21;15.90;;;10.32;;
19312;SDS011;9791;50.820;4.406;2023-01-29T12:06:49;16.90;;;10.85;;
19312;SDS011;9791;50.820;4.406;2023-01-29T12:09:18;17.38;;;10.23;;
19312;SDS011;9791;50.820;4.406;2023-01-29T12:11:44;17.58;;;10.27;;
19312;SDS011;9791;50.820;4.406;2023-01-29T12:14:22;19.02;;;10.50;;
19312;SDS011;9791;50.820;4.406;2023-01-29T12:19:53;19.05;;;10.95;;
19312;SDS011;9791;50.820;4.406;2023-01-29T12:22:22;20.70;;;10.82;;
19312;SDS011;9791;50.820;4.406;2023-01-29T12:30:11;17.92;;;10.82;;
19312;SDS011;9791;50.820;4.406;2023-01-29T12:32:52;20.83;;;10.93;;
19312;SDS011;9791;50.820;4.406;2023-01-29T12:45:55;18.15;;;10.48;;
19312;SDS011;9791;50.820;4.406;2023-01-29T12:48:24;17.55;;;10.30;;
19312;SDS011;9791;50.820;4.406;2023-01-29T12:50:51;19.38;;;9.90;;
19312;SDS011;9791;50.820;4.406;2023-01-29T12:53:29;17.10;;;10.18;;
19312;SDS011;9791;50.820;4.406;2023-01-29T12:56:01;18.05;;;9.52;;
19312;SDS011;9791;50.820;4.406;2023-01-29T12:58:32;18.05;;;10.32;;
19312;SDS011;9791;50.820;4.406;2023-01-29T13:01:02;16.95;;;9.10;;
19312;SDS011;9791;50.820;4.406;2023-01-29T13:03:33;15.50;;;8.90;;
19312;SDS011;9791;50.820;4.406;2023-01-29T13:06:11;16.35;;;9.60;;
19312;SDS011;9791;50.820;4.406;2023-01-29T13:08:44;15.13;;;9.05;;
19312;SDS011;9791;50.820;4.406;2023-01-29T13:11:25;16.23;;;9.65;;
19312;SDS011;9791;50.820;4.406;2023-01-29T13:13:55;16.42;;;8.73;;
19312;SDS011;9791;50.820;4.406;2023-01-29T13:16:25;15.68;;;8.80;;
19312;SDS011;9791;50.820;4.406;2023-01-29T13:18:53;16.00;;;9.30;;
19312;SDS011;9791;50.820;4.406;2023-01-29T13:21:39;12.82;;;8.32;;
19312;SDS011;9791;50.820;4.406;2023-01-29T13:24:14;15.20;;;9.45;;
19312;SDS011;9791;50.820;4.406;2023-01-29T13:26:44;15.63;;;8.55;;
19312;SDS011;9791;50.820;4.406;2023-01-29T13:29:29;14.18;;;8.25;;
19312;SDS011;9791;50.820;4.406;2023-01-29T13:31:56;13.70;;;7.88;;
19312;SDS011;9791;50.820;4.406;2023-01-29T13:34:33;15.63;;;8.75;;
19312;SDS011;9791;50.820;4.406;2023-01-29T13:37:01;14.25;;;8.75;;
19312;SDS011;9791;50.820;4.406;2023-01-29T13:39:35;15.30;;;9.32;;
19312;SDS011;9791;50.820;4.406;2023-01-29T13:42:18;15.27;;;8.18;;
19312;SDS011;9791;50.820;4.406;2023-01-29T13:44:46;15.93;;;8.00;;
19312;SDS011;9791;50.820;4.406;2023-01-29T13:49:46;17.63;;;8.77;;
19312;SDS011;9791;50.820;4.406;2023-01-29T13:54:59;16.35;;;8.68;;
19312;SDS011;9791;50.820;4.406;2023-01-29T14:00:01;13.90;;;8.70;;
19312;SDS011;9791;50.820;4.406;2023-01-29T14:02:28;15.90;;;8.85;;
19312;SDS011;9791;50.820;4.406;2023-01-29T14:07:52;14.50;;;9.38;;
19312;SDS011;9791;50.820;4.406;2023-01-29T14:10:19;18.52;;;9.70;;
19312;SDS011;9791;50.820;4.406;2023-01-29T14:12:46;16.98;;;10.63;;
19312;SDS011;9791;50.820;4.406;2023-01-29T14:15:16;18.02;;;9.45;;
19312;SDS011;9791;50.820;4.406;2023-01-29T14:17:52;19.00;;;9.43;;
19312;SDS011;9791;50.820;4.406;2023-01-29T14:20:20;16.52;;;9.52;;
19312;SDS011;9791;50.820;4.406;2023-01-29T14:22:54;17.92;;;8.88;;
19312;SDS011;9791;50.820;4.406;2023-01-29T14:25:22;15.32;;;9.15;;
19312;SDS011;9791;50.820;4.406;2023-01-29T14:27:52;15.52;;;9.15;;
19312;SDS011;9791;50.820;4.406;2023-01-29T14:30:18;14.35;;;8.82;;
19312;SDS011;9791;50.820;4.406;2023-01-29T14:32:46;18.67;;;9.88;;
19312;SDS011;9791;50.820;4.406;2023-01-29T14:35:19;15.70;;;9.60;;
19312;SDS011;9791;50.820;4.406;2023-01-29T14:37:48;17.63;;;9.85;;
19312;SDS011;9791;50.820;4.406;2023-01-29T14:42:46;15.68;;;9.60;;
19312;SDS011;9791;50.820;4.406;2023-01-29T14:47:54;17.58;;;10.00;;
19312;SDS011;9791;50.820;4.406;2023-01-29T14:55:36;18.83;;;10.95;;
19312;SDS011;9791;50.820;4.406;2023-01-29T14:58:03;16.67;;;10.10;;
19312;SDS011;9791;50.820;4.406;2023-01-29T15:00:36;18.92;;;10.35;;
19312;SDS011;9791;50.820;4.406;2023-01-29T15:03:10;18.80;;;10.65;;
19312;SDS011;9791;50.820;4.406;2023-01-29T15:05:37;18.90;;;11.23;;
19312;SDS011;9791;50.820;4.406;2023-01-29T15:10:39;20.15;;;11.00;;
19312;SDS011;9791;50.820;4.406;2023-01-29T15:13:11;20.63;;;11.05;;
19312;SDS011;9791;50.820;4.406;2023-01-29T15:15:43;22.75;;;12.25;;
19312;SDS011;9791;50.820;4.406;2023-01-29T15:21:02;18.70;;;11.98;;
19312;SDS011;9791;50.820;4.406;2023-01-29T15:23:29;21.25;;;12.10;;
19312;SDS011;9791;50.820;4.406;2023-01-29T15:25:59;26.25;;;12.65;;
19312;SDS011;9791;50.820;4.406;2023-01-29T15:28:31;21.85;;;13.23;;
19312;SDS011;9791;50.820;4.406;2023-01-29T15:30:58;21.52;;;12.18;;
19312;SDS011;9791;50.820;4.406;2023-01-29T15:33:25;23.45;;;13.00;;
19312;SDS011;9791;50.820;4.406;2023-01-29T15:35:58;22.80;;;13.52;;
19312;SDS011;9791;50.820;4.406;2023-01-29T15:38:25;21.08;;;13.07;;
19312;SDS011;9791;50.820;4.406;2023-01-29T15:43:24;24.50;;;14.27;;
19312;SDS011;9791;50.820;4.406;2023-01-29T15:45:52;25.58;;;14.50;;
19312;SDS011;9791;50.820;4.406;2023-01-29T15:48:19;25.02;;;14.50;;
19312;SDS011;9791;50.820;4.406;2023-01-29T15:50:47;24.80;;;14.53;;
19312;SDS011;9791;50.820;4.406;2023-01-29T15:53:18;24.10;;;15.00;;
19312;SDS011;9791;50.820;4.406;2023-01-29T15:55:44;28.10;;;15.35;;
19312;SDS011;9791;50.820;4.406;2023-01-29T15:58:15;28.77;;;15.35;;
19312;SDS011;9791;50.820;4.406;2023-01-29T16:00:51;28.80;;;16.50;;
19312;SDS011;9791;50.820;4.406;2023-01-29T16:03:20;27.42;;;15.52;;
19312;SDS011;9791;50.820;4.406;2023-01-29T16:05:47;25.30;;;15.00;;
19312;SDS011;9791;50.820;4.406;2023-01-29T16:08:13;28.45;;;15.90;;
19312;SDS011;9791;50.820;4.406;2023-01-29T16:10:40;26.52;;;16.15;;
19312;SDS011;9791;50.820;4.406;2023-01-29T16:13:22;27.38;;;16.45;;
19312;SDS011;9791;50.820;4.406;2023-01-29T16:15:58;30.15;;;15.98;;
19312;SDS011;9791;50.820;4.406;2023-01-29T16:18:35;28.35;;;16.33;;
19312;SDS011;9791;50.820;4.406;2023-01-29T16:21:09;26.75;;;15.55;;
19312;SDS011;9791;50.820;4.406;2023-01-29T16:23:58;28.50;;;15.87;;
19312;SDS011;9791;50.820;4.406;2023-01-29T16:26:23;30.08;;;17.05;;
19312;SDS011;9791;50.820;4.406;2023-01-29T16:28:50;28.03;;;14.60;;
19312;SDS011;9791;50.820;4.406;2023-01-29T16:31:24;28.93;;;16.93;;
19312;SDS011;9791;50.820;4.406;2023-01-29T16:33:51;31.57;;;16.60;;
19312;SDS011;9791;50.820;4.406;2023-01-29T16:36:19;27.53;;;16.83;;
19312;SDS011;9791;50.820;4.406;2023-01-29T16:38:47;28.13;;;16.73;;
19312;SDS011;9791;50.820;4.406;2023-01-29T16:43:44;31.37;;;17.93;;
19312;SDS011;9791;50.820;4.406;2023-01-29T16:46:24;32.77;;;16.83;;
19312;SDS011;9791;50.820;4.406;2023-01-29T16:48:50;29.63;;;16.23;;
19312;SDS011;9791;50.820;4.406;2023-01-29T16:51:21;27.67;;;15.70;;
19312;SDS011;9791;50.820;4.406;2023-01-29T16:53:52;32.30;;;16.60;;
19312;SDS011;9791;50.820;4.406;2023-01-29T16:56:18;30.97;;;16.83;;
19312;SDS011;9791;50.820;4.406;2023-01-29T16:58:48;29.93;;;17.60;;
19312;SDS011;9791;50.820;4.406;2023-01-29T17:01:15;28.80;;;16.23;;
19312;SDS011;9791;50.820;4.406;2023-01-29T17:03:43;27.10;;;16.50;;
19312;SDS011;9791;50.820;4.406;2023-01-29T17:06:09;30.83;;;16.83;;
19312;SDS011;9791;50.820;4.406;2023-01-29T17:08:36;28.40;;;16.40;;
19312;SDS011;9791;50.820;4.406;2023-01-29T17:11:02;29.03;;;16.30;;
19312;SDS011;9791;50.820;4.406;2023-01-29T17:13:36;31.07;;;16.67;;
19312;SDS011;9791;50.820;4.406;2023-01-29T17:18:49;25.50;;;15.75;;
19312;SDS011;9791;50.820;4.406;2023-01-29T17:21:15;26.47;;;15.97;;
19312;SDS011;9791;50.820;4.406;2023-01-29T17:23:41;32.40;;;17.67;;
19312;SDS011;9791;50.820;4.406;2023-01-29T17:26:08;31.00;;;17.63;;
19312;SDS011;9791;50.820;4.406;2023-01-29T17:28:36;28.87;;;16.63;;
19312;SDS011;9791;50.820;4.406;2023-01-29T17:31:02;32.70;;;18.07;;